MMLP/LAP METAR and TAF weather

Enter ICAO airport designator
Station Type Date Time Source
MMLP METAR 2019/05/26 00:51 UTC NOAA

MMLP 260051Z 22010KT 10SM SKC 27/09 A2985


Station Type Date Time Source
MMLP Decoded METAR 2019/05/26 00:51 UTC NOAA

La Paz International Airport, Mexico (MMLP) 24-04N 110-22W
May 25, 2019 - 08:51 PM EDT / 2019.05.26 0051 UTC
Wind: from the SW (220 degrees) at 12 MPH (10 KT):0
Visibility: 10 mile(s):0
Sky conditions: clear
Temperature: 80 F (27 C)
Dew Point: 48 F (9 C)
Relative Humidity: 32%
Pressure (altimeter): 29.85 in. Hg (1010 hPa)
ob: MMLP 260051Z 22010KT 10SM SKC 27/09 A2985
cycle: 1

Station Type Date Time Source
MMLP TAF 2019/05/25 18:49 UTC NOAA

TAF MMLP 251642Z 2518/2618 26012KT P6SM SKC
FM260400 20008KT P6SM SCT250
FM261600 30010KT P6SM BKN250

Example: see airport list